sensor_id;sensor_type;location;lat;lon;timestamp;pressure;altitude;pressure_sealevel;temperature;humidity
27294;BME280;14785;52.556;13.430;2023-03-19T00:02:05;100521.00;;;15.57;100.00
27294;BME280;14785;52.556;13.430;2023-03-19T00:04:32;100521.91;;;15.85;100.00
27294;BME280;14785;52.556;13.430;2023-03-19T00:06:57;100522.25;;;16.03;100.00
27294;BME280;14785;52.556;13.430;2023-03-19T00:09:23;100532.09;;;15.96;100.00
27294;BME280;14785;52.556;13.430;2023-03-19T00:11:49;100525.78;;;15.82;100.00
27294;BME280;14785;52.556;13.430;2023-03-19T00:14:15;100528.28;;;15.42;100.00
27294;BME280;14785;52.556;13.430;2023-03-19T00:16:41;100533.25;;;15.23;100.00
27294;BME280;14785;52.556;13.430;2023-03-19T00:19:07;100537.47;;;14.82;100.00
27294;BME280;14785;52.556;13.430;2023-03-19T00:21:33;100534.44;;;14.71;100.00
27294;BME280;14785;52.556;13.430;2023-03-19T00:23:58;100526.38;;;14.85;100.00
27294;BME280;14785;52.556;13.430;2023-03-19T00:26:32;100519.91;;;14.94;100.00
27294;BME280;14785;52.556;13.430;2023-03-19T00:29:00;100526.50;;;14.48;100.00
27294;BME280;14785;52.556;13.430;2023-03-19T00:31:27;100518.25;;;14.93;100.00
27294;BME280;14785;52.556;13.430;2023-03-19T00:33:55;100525.97;;;15.17;100.00
27294;BME280;14785;52.556;13.430;2023-03-19T00:36:21;100523.75;;;15.42;100.00
27294;BME280;14785;52.556;13.430;2023-03-19T00:38:49;100524.66;;;15.13;100.00
27294;BME280;14785;52.556;13.430;2023-03-19T00:41:16;100530.88;;;15.35;100.00
27294;BME280;14785;52.556;13.430;2023-03-19T00:43:43;100519.97;;;15.37;100.00
27294;BME280;14785;52.556;13.430;2023-03-19T00:46:08;100524.66;;;15.13;100.00
27294;BME280;14785;52.556;13.430;2023-03-19T00:48:34;100526.00;;;15.39;100.00
27294;BME280;14785;52.556;13.430;2023-03-19T00:51:08;100521.66;;;15.38;100.00
27294;BME280;14785;52.556;13.430;2023-03-19T00:53:41;100520.59;;;15.17;100.00
27294;BME280;14785;52.556;13.430;2023-03-19T00:56:09;100529.97;;;15.43;100.00
27294;BME280;14785;52.556;13.430;2023-03-19T00:58:35;100526.25;;;15.44;100.00
27294;BME280;14785;52.556;13.430;2023-03-19T01:01:03;100529.72;;;15.23;100.00
27294;BME280;14785;52.556;13.430;2023-03-19T01:03:29;100545.59;;;14.60;100.00
27294;BME280;14785;52.556;13.430;2023-03-19T01:05:54;100534.53;;;14.48;100.00
27294;BME280;14785;52.556;13.430;2023-03-19T01:08:20;100536.34;;;14.19;100.00
27294;BME280;14785;52.556;13.430;2023-03-19T01:10:45;100540.97;;;14.68;100.00
27294;BME280;14785;52.556;13.430;2023-03-19T01:13:11;100537.31;;;14.03;100.00
27294;BME280;14785;52.556;13.430;2023-03-19T01:15:38;100539.97;;;14.03;100.00
27294;BME280;14785;52.556;13.430;2023-03-19T01:18:05;100536.59;;;14.09;100.00
27294;BME280;14785;52.556;13.430;2023-03-19T01:20:32;100538.81;;;14.20;100.00
27294;BME280;14785;52.556;13.430;2023-03-19T01:22:57;100542.81;;;14.24;100.00
27294;BME280;14785;52.556;13.430;2023-03-19T01:25:24;100541.34;;;14.36;100.00
27294;BME280;14785;52.556;13.430;2023-03-19T01:27:50;100539.03;;;14.48;100.00
27294;BME280;14785;52.556;13.430;2023-03-19T01:30:17;100538.59;;;13.70;100.00
27294;BME280;14785;52.556;13.430;2023-03-19T01:32:44;100542.88;;;13.79;100.00
27294;BME280;14785;52.556;13.430;2023-03-19T01:35:11;100540.91;;;13.73;100.00
27294;BME280;14785;52.556;13.430;2023-03-19T01:37:37;100550.69;;;14.03;100.00
27294;BME280;14785;52.556;13.430;2023-03-19T01:40:03;100548.28;;;14.45;100.00
27294;BME280;14785;52.556;13.430;2023-03-19T01:42:30;100545.69;;;14.52;100.00
27294;BME280;14785;52.556;13.430;2023-03-19T01:44:56;100548.16;;;14.53;100.00
27294;BME280;14785;52.556;13.430;2023-03-19T01:47:35;100544.47;;;14.25;100.00
27294;BME280;14785;52.556;13.430;2023-03-19T01:50:02;100548.63;;;14.71;100.00
27294;BME280;14785;52.556;13.430;2023-03-19T01:52:31;100548.91;;;14.76;100.00
27294;BME280;14785;52.556;13.430;2023-03-19T01:55:00;100543.19;;;14.79;100.00
27294;BME280;14785;52.556;13.430;2023-03-19T01:57:27;100544.28;;;14.99;100.00
27294;BME280;14785;52.556;13.430;2023-03-19T01:59:56;100546.47;;;15.10;100.00
27294;BME280;14785;52.556;13.430;2023-03-19T02:02:30;100561.66;;;14.89;100.00
27294;BME280;14785;52.556;13.430;2023-03-19T02:05:04;100549.63;;;14.99;100.00
27294;BME280;14785;52.556;13.430;2023-03-19T02:07:32;100553.25;;;14.92;100.00
27294;BME280;14785;52.556;13.430;2023-03-19T02:10:00;100546.69;;;14.94;100.00
27294;BME280;14785;52.556;13.430;2023-03-19T02:12:26;100536.59;;;15.11;100.00
27294;BME280;14785;52.556;13.430;2023-03-19T02:14:51;100538.69;;;14.80;100.00
27294;BME280;14785;52.556;13.430;2023-03-19T02:17:17;100537.09;;;14.85;100.00
27294;BME280;14785;52.556;13.430;2023-03-19T02:22:17;100528.66;;;15.03;100.00
27294;BME280;14785;52.556;13.430;2023-03-19T02:24:52;100529.72;;;14.87;100.00
27294;BME280;14785;52.556;13.430;2023-03-19T02:27:19;100535.25;;;14.71;100.00
27294;BME280;14785;52.556;13.430;2023-03-19T02:29:44;100540.34;;;14.66;100.00
27294;BME280;14785;52.556;13.430;2023-03-19T02:32:10;100534.13;;;14.80;100.00
27294;BME280;14785;52.556;13.430;2023-03-19T02:34:38;100541.88;;;14.90;100.00
27294;BME280;14785;52.556;13.430;2023-03-19T02:37:20;100537.19;;;14.77;100.00
27294;BME280;14785;52.556;13.430;2023-03-19T02:39:54;100532.47;;;14.79;100.00
27294;BME280;14785;52.556;13.430;2023-03-19T02:42:23;100536.72;;;14.88;100.00
27294;BME280;14785;52.556;13.430;2023-03-19T02:44:50;100535.97;;;14.94;100.00
27294;BME280;14785;52.556;13.430;2023-03-19T02:47:15;100536.34;;;14.91;100.00
27294;BME280;14785;52.556;13.430;2023-03-19T02:49:41;100539.84;;;14.77;100.00
27294;BME280;14785;52.556;13.430;2023-03-19T02:52:07;100539.78;;;14.71;100.00
27294;BME280;14785;52.556;13.430;2023-03-19T02:54:32;100541.34;;;14.65;100.00
27294;BME280;14785;52.556;13.430;2023-03-19T02:56:58;100528.97;;;14.79;100.00
27294;BME280;14785;52.556;13.430;2023-03-19T02:59:23;100530.84;;;14.49;100.00
27294;BME280;14785;52.556;13.430;2023-03-19T03:01:49;100527.59;;;14.68;100.00
27294;BME280;14785;52.556;13.430;2023-03-19T03:04:15;100530.81;;;14.64;100.00
27294;BME280;14785;52.556;13.430;2023-03-19T03:06:41;100532.47;;;14.79;100.00
27294;BME280;14785;52.556;13.430;2023-03-19T03:09:08;100524.25;;;14.81;100.00
27294;BME280;14785;52.556;13.430;2023-03-19T03:11:34;100527.59;;;14.68;100.00
27294;BME280;14785;52.556;13.430;2023-03-19T03:13:59;100526.69;;;14.61;100.00
27294;BME280;14785;52.556;13.430;2023-03-19T03:16:24;100525.56;;;14.41;100.00
27294;BME280;14785;52.556;13.430;2023-03-19T03:18:50;100532.22;;;14.31;100.00
27294;BME280;14785;52.556;13.430;2023-03-19T03:21:15;100524.44;;;14.50;100.00
27294;BME280;14785;52.556;13.430;2023-03-19T03:23:44;100523.06;;;14.25;100.00
27294;BME280;14785;52.556;13.430;2023-03-19T03:26:10;100527.78;;;14.23;100.00
27294;BME280;14785;52.556;13.430;2023-03-19T03:28:35;100523.44;;;13.85;100.00
27294;BME280;14785;52.556;13.430;2023-03-19T03:31:01;100522.34;;;14.31;100.00
27294;BME280;14785;52.556;13.430;2023-03-19T03:33:27;100530.47;;;14.23;100.00
27294;BME280;14785;52.556;13.430;2023-03-19T03:35:52;100527.34;;;14.12;100.00
27294;BME280;14785;52.556;13.430;2023-03-19T03:38:18;100529.72;;;13.92;100.00
27294;BME280;14785;52.556;13.430;2023-03-19T03:40:43;100538.94;;;13.44;100.00
27294;BME280;14785;52.556;13.430;2023-03-19T03:43:09;100555.34;;;13.64;100.00
27294;BME280;14785;52.556;13.430;2023-03-19T03:45:35;100586.25;;;11.54;100.00
27294;BME280;14785;52.556;13.430;2023-03-19T03:48:01;100569.31;;;12.20;100.00
27294;BME280;14785;52.556;13.430;2023-03-19T03:50:26;100575.41;;;13.07;100.00
27294;BME280;14785;52.556;13.430;2023-03-19T03:52:51;100562.69;;;13.62;100.00
27294;BME280;14785;52.556;13.430;2023-03-19T03:55:17;100570.66;;;13.70;100.00
27294;BME280;14785;52.556;13.430;2023-03-19T03:57:43;100572.50;;;13.92;100.00
27294;BME280;14785;52.556;13.430;2023-03-19T04:00:09;100575.06;;;13.86;100.00
27294;BME280;14785;52.556;13.430;2023-03-19T04:02:35;100581.50;;;14.14;100.00
27294;BME280;14785;52.556;13.430;2023-03-19T04:05:00;100570.09;;;14.20;100.00
27294;BME280;14785;52.556;13.430;2023-03-19T04:07:26;100583.34;;;14.13;100.00
27294;BME280;14785;52.556;13.430;2023-03-19T04:09:52;100574.81;;;13.95;100.00
27294;BME280;14785;52.556;13.430;2023-03-19T04:12:18;100565.09;;;13.57;100.00
27294;BME280;14785;52.556;13.430;2023-03-19T04:14:43;100586.09;;;14.05;100.00
27294;BME280;14785;52.556;13.430;2023-03-19T04:17:09;100583.16;;;14.37;100.00
27294;BME280;14785;52.556;13.430;2023-03-19T04:19:35;100592.16;;;14.22;100.00
27294;BME280;14785;52.556;13.430;2023-03-19T04:22:00;100589.78;;;14.04;100.00
27294;BME280;14785;52.556;13.430;2023-03-19T04:24:27;100592.53;;;13.51;100.00
27294;BME280;14785;52.556;13.430;2023-03-19T04:26:53;100587.72;;;13.47;100.00
27294;BME280;14785;52.556;13.430;2023-03-19T04:29:18;100585.97;;;13.31;100.00
27294;BME280;14785;52.556;13.430;2023-03-19T04:31:44;100593.50;;;13.27;100.00
27294;BME280;14785;52.556;13.430;2023-03-19T04:34:10;100599.97;;;12.94;100.00
27294;BME280;14785;52.556;13.430;2023-03-19T04:36:36;100599.19;;;12.78;100.00
27294;BME280;14785;52.556;13.430;2023-03-19T04:39:02;100607.50;;;12.83;100.00
27294;BME280;14785;52.556;13.430;2023-03-19T04:41:27;100605.53;;;13.54;100.00
27294;BME280;14785;52.556;13.430;2023-03-19T04:43:53;100611.78;;;13.08;100.00
27294;BME280;14785;52.556;13.430;2023-03-19T04:46:19;100606.97;;;13.34;100.00
27294;BME280;14785;52.556;13.430;2023-03-19T04:48:45;100606.22;;;13.17;100.00
27294;BME280;14785;52.556;13.430;2023-03-19T04:51:10;100614.41;;;13.16;100.00
27294;BME280;14785;52.556;13.430;2023-03-19T04:53:36;100615.69;;;13.59;100.00
27294;BME280;14785;52.556;13.430;2023-03-19T04:56:03;100610.94;;;13.38;100.00
27294;BME280;14785;52.556;13.430;2023-03-19T04:58:28;100613.44;;;13.70;100.00
27294;BME280;14785;52.556;13.430;2023-03-19T05:00:54;100615.28;;;12.46;100.00
27294;BME280;14785;52.556;13.430;2023-03-19T05:03:19;100615.41;;;13.45;100.00
27294;BME280;14785;52.556;13.430;2023-03-19T05:05:46;100620.94;;;12.51;100.00
27294;BME280;14785;52.556;13.430;2023-03-19T05:08:12;100623.00;;;13.34;100.00
27294;BME280;14785;52.556;13.430;2023-03-19T05:10:38;100627.47;;;13.11;100.00
27294;BME280;14785;52.556;13.430;2023-03-19T05:13:03;100626.25;;;12.59;100.00
27294;BME280;14785;52.556;13.430;2023-03-19T05:15:29;100622.25;;;12.55;100.00
27294;BME280;14785;52.556;13.430;2023-03-19T05:17:55;100620.50;;;12.86;100.00
27294;BME280;14785;52.556;13.430;2023-03-19T05:20:20;100612.59;;;13.16;100.00
27294;BME280;14785;52.556;13.430;2023-03-19T05:22:46;100610.59;;;13.10;100.00
27294;BME280;14785;52.556;13.430;2023-03-19T05:25:12;100590.00;;;13.27;100.00
27294;BME280;14785;52.556;13.430;2023-03-19T05:27:37;100600.13;;;13.62;100.00
27294;BME280;14785;52.556;13.430;2023-03-19T05:30:04;100622.25;;;12.47;100.00
27294;BME280;14785;52.556;13.430;2023-03-19T05:32:29;100629.31;;;12.32;100.00
27294;BME280;14785;52.556;13.430;2023-03-19T05:34:55;100633.56;;;12.81;100.00
27294;BME280;14785;52.556;13.430;2023-03-19T05:37:21;100622.06;;;13.27;100.00
27294;BME280;14785;52.556;13.430;2023-03-19T05:39:46;100628.50;;;13.02;100.00
27294;BME280;14785;52.556;13.430;2023-03-19T05:42:12;100607.59;;;12.51;100.00
27294;BME280;14785;52.556;13.430;2023-03-19T05:44:39;100602.78;;;12.38;100.00
27294;BME280;14785;52.556;13.430;2023-03-19T05:47:04;100577.94;;;12.38;100.00
27294;BME280;14785;52.556;13.430;2023-03-19T05:49:30;100571.97;;;12.28;100.00
27294;BME280;14785;52.556;13.430;2023-03-19T05:51:55;100555.09;;;12.35;100.00
27294;BME280;14785;52.556;13.430;2023-03-19T05:54:21;100552.38;;;12.59;100.00
27294;BME280;14785;52.556;13.430;2023-03-19T05:56:46;100543.25;;;12.84;100.00
27294;BME280;14785;52.556;13.430;2023-03-19T05:59:11;100548.59;;;12.92;100.00
27294;BME280;14785;52.556;13.430;2023-03-19T06:01:38;100536.69;;;13.11;100.00
27294;BME280;14785;52.556;13.430;2023-03-19T06:04:03;100537.66;;;13.10;100.00
27294;BME280;14785;52.556;13.430;2023-03-19T06:06:29;100545.94;;;12.84;100.00
27294;BME280;14785;52.556;13.430;2023-03-19T06:08:54;100554.25;;;13.28;100.00
27294;BME280;14785;52.556;13.430;2023-03-19T06:11:20;100540.84;;;13.36;100.00
27294;BME280;14785;52.556;13.430;2023-03-19T06:13:45;100538.22;;;13.28;100.00
27294;BME280;14785;52.556;13.430;2023-03-19T06:16:11;100535.88;;;13.33;100.00
27294;BME280;14785;52.556;13.430;2023-03-19T06:18:36;100537.41;;;13.27;100.00
27294;BME280;14785;52.556;13.430;2023-03-19T06:21:02;100543.91;;;13.25;100.00
27294;BME280;14785;52.556;13.430;2023-03-19T06:23:28;100543.56;;;13.28;100.00
27294;BME280;14785;52.556;13.430;2023-03-19T06:25:54;100548.22;;;13.34;100.00
27294;BME280;14785;52.556;13.430;2023-03-19T06:28:20;100552.50;;;13.43;100.00
27294;BME280;14785;52.556;13.430;2023-03-19T06:30:46;100554.09;;;13.52;100.00
27294;BME280;14785;52.556;13.430;2023-03-19T06:33:11;100557.34;;;13.85;100.00
27294;BME280;14785;52.556;13.430;2023-03-19T06:35:38;100564.44;;;14.15;100.00
27294;BME280;14785;52.556;13.430;2023-03-19T06:38:04;100570.78;;;14.51;100.00
27294;BME280;14785;52.556;13.430;2023-03-19T06:40:30;100579.75;;;14.72;100.00
27294;BME280;14785;52.556;13.430;2023-03-19T06:42:55;100582.06;;;14.90;100.00
27294;BME280;14785;52.556;13.430;2023-03-19T06:45:21;100597.34;;;15.10;100.00
27294;BME280;14785;52.556;13.430;2023-03-19T06:47:46;100590.84;;;15.49;100.00
27294;BME280;14785;52.556;13.430;2023-03-19T06:50:15;100605.66;;;15.30;100.00
27294;BME280;14785;52.556;13.430;2023-03-19T06:52:41;100602.63;;;15.18;100.00
27294;BME280;14785;52.556;13.430;2023-03-19T06:55:07;100622.56;;;14.43;100.00
27294;BME280;14785;52.556;13.430;2023-03-19T06:57:33;100640.31;;;14.73;100.00
27294;BME280;14785;52.556;13.430;2023-03-19T06:59:58;100663.53;;;12.91;100.00
27294;BME280;14785;52.556;13.430;2023-03-19T07:02:24;100687.25;;;11.82;100.00
27294;BME280;14785;52.556;13.430;2023-03-19T07:04:52;100682.63;;;12.16;100.00
27294;BME280;14785;52.556;13.430;2023-03-19T07:07:21;100672.63;;;12.58;100.00
27294;BME280;14785;52.556;13.430;2023-03-19T07:09:46;100690.75;;;13.41;100.00
27294;BME280;14785;52.556;13.430;2023-03-19T07:12:12;100709.75;;;12.99;100.00
27294;BME280;14785;52.556;13.430;2023-03-19T07:14:37;100724.94;;;12.99;100.00
27294;BME280;14785;52.556;13.430;2023-03-19T07:17:03;100751.91;;;11.92;100.00
27294;BME280;14785;52.556;13.430;2023-03-19T07:19:28;100740.97;;;12.11;100.00
27294;BME280;14785;52.556;13.430;2023-03-19T07:21:53;100721.81;;;12.47;100.00
27294;BME280;14785;52.556;13.430;2023-03-19T07:24:19;100736.81;;;13.04;100.00
27294;BME280;14785;52.556;13.430;2023-03-19T07:26:44;100745.00;;;12.63;100.00
27294;BME280;14785;52.556;13.430;2023-03-19T07:29:10;100758.47;;;12.45;100.00
27294;BME280;14785;52.556;13.430;2023-03-19T07:31:36;100757.66;;;12.77;100.00
27294;BME280;14785;52.556;13.430;2023-03-19T07:34:02;100752.31;;;13.09;100.00
27294;BME280;14785;52.556;13.430;2023-03-19T07:36:30;100728.91;;;13.19;100.00
27294;BME280;14785;52.556;13.430;2023-03-19T07:38:55;100718.25;;;12.95;100.00
27294;BME280;14785;52.556;13.430;2023-03-19T07:41:21;100695.59;;;13.76;100.00
27294;BME280;14785;52.556;13.430;2023-03-19T07:43:47;100661.16;;;13.81;100.00
27294;BME280;14785;52.556;13.430;2023-03-19T07:46:12;100643.38;;;13.88;100.00
27294;BME280;14785;52.556;13.430;2023-03-19T07:48:38;100633.84;;;13.40;100.00
27294;BME280;14785;52.556;13.430;2023-03-19T07:51:03;100629.75;;;13.22;100.00
27294;BME280;14785;52.556;13.430;2023-03-19T07:53:30;100635.97;;;13.45;100.00
27294;BME280;14785;52.556;13.430;2023-03-19T07:55:55;100643.97;;;13.98;100.00
27294;BME280;14785;52.556;13.430;2023-03-19T07:58:20;100643.50;;;14.17;100.00
27294;BME280;14785;52.556;13.430;2023-03-19T08:00:46;100644.22;;;14.11;100.00
27294;BME280;14785;52.556;13.430;2023-03-19T08:03:11;100651.97;;;14.29;100.00
27294;BME280;14785;52.556;13.430;2023-03-19T08:05:37;100652.72;;;14.15;100.00
27294;BME280;14785;52.556;13.430;2023-03-19T08:08:02;100663.88;;;14.26;100.00
27294;BME280;14785;52.556;13.430;2023-03-19T08:10:28;100668.19;;;13.74;100.00
27294;BME280;14785;52.556;13.430;2023-03-19T08:12:53;100692.69;;;13.55;100.00
27294;BME280;14785;52.556;13.430;2023-03-19T08:15:19;100688.88;;;13.80;100.00
27294;BME280;14785;52.556;13.430;2023-03-19T08:17:44;100677.94;;;13.67;100.00
27294;BME280;14785;52.556;13.430;2023-03-19T08:20:12;100664.25;;;14.15;100.00
27294;BME280;14785;52.556;13.430;2023-03-19T08:22:38;100669.78;;;13.91;100.00
27294;BME280;14785;52.556;13.430;2023-03-19T08:25:05;100678.47;;;13.93;100.00
27294;BME280;14785;52.556;13.430;2023-03-19T08:27:31;100679.94;;;13.65;100.00
27294;BME280;14785;52.556;13.430;2023-03-19T08:30:00;100690.25;;;13.76;100.00
27294;BME280;14785;52.556;13.430;2023-03-19T08:32:26;100693.06;;;13.44;100.00
27294;BME280;14785;52.556;13.430;2023-03-19T08:34:51;100703.31;;;13.71;100.00
27294;BME280;14785;52.556;13.430;2023-03-19T08:37:17;100712.03;;;14.18;100.00
27294;BME280;14785;52.556;13.430;2023-03-19T08:39:43;100744.47;;;12.19;100.00
27294;BME280;14785;52.556;13.430;2023-03-19T08:42:08;100776.59;;;12.02;100.00
27294;BME280;14785;52.556;13.430;2023-03-19T08:44:34;100783.63;;;12.19;100.00
27294;BME280;14785;52.556;13.430;2023-03-19T08:46:59;100786.84;;;12.62;100.00
27294;BME280;14785;52.556;13.430;2023-03-19T08:49:25;100783.66;;;12.83;100.00
27294;BME280;14785;52.556;13.430;2023-03-19T08:51:50;100786.38;;;12.75;100.00
27294;BME280;14785;52.556;13.430;2023-03-19T08:54:15;100781.00;;;12.59;100.00
27294;BME280;14785;52.556;13.430;2023-03-19T08:56:41;100775.16;;;12.31;100.00
27294;BME280;14785;52.556;13.430;2023-03-19T08:59:07;100784.66;;;12.26;100.00
27294;BME280;14785;52.556;13.430;2023-03-19T09:01:33;100788.56;;;11.90;100.00
27294;BME280;14785;52.556;13.430;2023-03-19T09:03:58;100794.59;;;12.00;100.00
27294;BME280;14785;52.556;13.430;2023-03-19T09:06:24;100793.28;;;12.12;100.00
27294;BME280;14785;52.556;13.430;2023-03-19T09:08:50;100789.94;;;12.10;100.00
27294;BME280;14785;52.556;13.430;2023-03-19T09:11:15;100781.34;;;12.40;100.00
27294;BME280;14785;52.556;13.430;2023-03-19T09:13:42;100758.31;;;12.71;100.00
27294;BME280;14785;52.556;13.430;2023-03-19T09:16:08;100747.31;;;12.90;100.00
27294;BME280;14785;52.556;13.430;2023-03-19T09:18:34;100719.88;;;13.28;100.00
27294;BME280;14785;52.556;13.430;2023-03-19T09:21:00;100722.03;;;13.32;100.00
27294;BME280;14785;52.556;13.430;2023-03-19T09:23:26;100718.28;;;13.03;100.00
27294;BME280;14785;52.556;13.430;2023-03-19T09:25:51;100712.44;;;13.46;100.00
27294;BME280;14785;52.556;13.430;2023-03-19T09:28:17;100699.94;;;13.77;100.00
27294;BME280;14785;52.556;13.430;2023-03-19T09:30:48;100705.56;;;13.90;100.00
27294;BME280;14785;52.556;13.430;2023-03-19T09:33:15;100694.03;;;14.12;100.00
27294;BME280;14785;52.556;13.430;2023-03-19T09:35:41;100684.84;;;14.37;100.00
27294;BME280;14785;52.556;13.430;2023-03-19T09:38:07;100690.84;;;14.39;100.00
27294;BME280;14785;52.556;13.430;2023-03-19T09:40:37;100689.72;;;14.71;100.00
27294;BME280;14785;52.556;13.430;2023-03-19T09:45:40;100692.50;;;14.40;100.00
27294;BME280;14785;52.556;13.430;2023-03-19T09:48:13;100679.22;;;14.32;100.00
27294;BME280;14785;52.556;13.430;2023-03-19T09:50:41;100675.84;;;14.53;100.00
27294;BME280;14785;52.556;13.430;2023-03-19T09:55:51;100678.22;;;14.99;100.00
27294;BME280;14785;52.556;13.430;2023-03-19T09:58:25;100672.94;;;15.06;100.00
27294;BME280;14785;52.556;13.430;2023-03-19T10:00:52;100674.69;;;15.13;100.00
27294;BME280;14785;52.556;13.430;2023-03-19T10:16:29;100660.09;;;16.02;100.00
27294;BME280;14785;52.556;13.430;2023-03-19T10:18:58;100659.91;;;16.24;100.00
27294;BME280;14785;52.556;13.430;2023-03-19T10:23:59;100675.59;;;15.50;100.00
27294;BME280;14785;52.556;13.430;2023-03-19T10:26:30;100671.53;;;15.54;100.00
27294;BME280;14785;52.556;13.430;2023-03-19T10:36:45;100669.84;;;17.06;100.00
27294;BME280;14785;52.556;13.430;2023-03-19T10:39:13;100666.63;;;17.58;100.00
27294;BME280;14785;52.556;13.430;2023-03-19T10:41:48;100670.00;;;17.33;100.00
27294;BME280;14785;52.556;13.430;2023-03-19T10:44:44;100677.44;;;16.96;100.00
27294;BME280;14785;52.556;13.430;2023-03-19T10:47:14;100675.19;;;16.45;100.00
27294;BME280;14785;52.556;13.430;2023-03-19T10:49:40;100672.63;;;17.20;100.00
27294;BME280;14785;52.556;13.430;2023-03-19T10:52:27;100672.06;;;16.96;100.00
27294;BME280;14785;52.556;13.430;2023-03-19T10:55:11;100676.50;;;17.45;100.00
27294;BME280;14785;52.556;13.430;2023-03-19T10:57:41;100665.97;;;17.09;100.00
27294;BME280;14785;52.556;13.430;2023-03-19T11:00:22;100667.16;;;17.94;100.00
27294;BME280;14785;52.556;13.430;2023-03-19T11:02:52;100670.41;;;17.70;100.00
27294;BME280;14785;52.556;13.430;2023-03-19T11:05:27;100665.78;;;17.58;100.00
27294;BME280;14785;52.556;13.430;2023-03-19T11:10:23;100670.03;;;16.98;100.00
27294;BME280;14785;52.556;13.430;2023-03-19T11:13:16;100667.31;;;17.33;100.00
27294;BME280;14785;52.556;13.430;2023-03-19T11:15:46;100667.50;;;17.72;100.00
27294;BME280;14785;52.556;13.430;2023-03-19T11:18:21;100676.91;;;18.08;100.00
27294;BME280;14785;52.556;13.430;2023-03-19T11:20:58;100678.03;;;18.46;100.00
27294;BME280;14785;52.556;13.430;2023-03-19T11:23:28;100678.19;;;17.59;100.00
27294;BME280;14785;52.556;13.430;2023-03-19T11:25:58;100676.38;;;17.25;100.00
27294;BME280;14785;52.556;13.430;2023-03-19T11:28:26;100676.78;;;17.69;100.00
27294;BME280;14785;52.556;13.430;2023-03-19T11:31:25;100676.13;;;17.54;100.00
27294;BME280;14785;52.556;13.430;2023-03-19T11:50:44;100675.44;;;17.93;100.00
27294;BME280;14785;52.556;13.430;2023-03-19T11:53:29;100675.59;;;17.78;100.00
27294;BME280;14785;52.556;13.430;2023-03-19T11:56:04;100674.69;;;18.57;100.00
27294;BME280;14785;52.556;13.430;2023-03-19T11:58:56;100680.75;;;17.73;100.00
27294;BME280;14785;52.556;13.430;2023-03-19T12:01:26;100680.53;;;17.68;100.00
27294;BME280;14785;52.556;13.430;2023-03-19T12:12:26;100674.03;;;18.16;100.00
27294;BME280;14785;52.556;13.430;2023-03-19T12:15:02;100676.59;;;17.64;100.00
27294;BME280;14785;52.556;13.430;2023-03-19T12:26:01;100675.06;;;18.28;100.00
27294;BME280;14785;52.556;13.430;2023-03-19T12:28:40;100668.47;;;18.63;100.00
27294;BME280;14785;52.556;13.430;2023-03-19T12:37:39;100665.19;;;18.42;100.00
27294;BME280;14785;52.556;13.430;2023-03-19T12:39:41;100669.28;;;18.77;100.00
27294;BME280;14785;52.556;13.430;2023-03-19T12:42:13;100665.94;;;19.14;100.00
27294;BME280;14785;52.556;13.430;2023-03-19T12:44:45;100663.19;;;19.78;100.00
27294;BME280;14785;52.556;13.430;2023-03-19T12:47:20;100657.66;;;20.04;100.00
27294;BME280;14785;52.556;13.430;2023-03-19T12:50:13;100655.75;;;20.04;100.00
27294;BME280;14785;52.556;13.430;2023-03-19T12:52:43;100647.91;;;20.34;100.00
27294;BME280;14785;52.556;13.430;2023-03-19T13:00:50;100647.03;;;20.40;100.00
27294;BME280;14785;52.556;13.430;2023-03-19T13:03:38;100658.00;;;20.20;100.00
27294;BME280;14785;52.556;13.430;2023-03-19T13:09:07;100659.09;;;20.06;100.00
27294;BME280;14785;52.556;13.430;2023-03-19T13:12:02;100659.81;;;20.51;100.00
27294;BME280;14785;52.556;13.430;2023-03-19T13:14:44;100660.34;;;20.84;100.00
27294;BME280;14785;52.556;13.430;2023-03-19T13:17:26;100670.19;;;19.92;100.00
27294;BME280;14785;52.556;13.430;2023-03-19T13:19:57;100662.34;;;19.84;100.00
27294;BME280;14785;52.556;13.430;2023-03-19T13:22:35;100661.78;;;20.06;100.00
27294;BME280;14785;52.556;13.430;2023-03-19T13:25:02;100661.66;;;20.32;100.00
27294;BME280;14785;52.556;13.430;2023-03-19T13:27:31;100663.59;;;20.93;100.00
27294;BME280;14785;52.556;13.430;2023-03-19T13:30:15;100657.38;;;20.92;100.00
27294;BME280;14785;52.556;13.430;2023-03-19T13:32:50;100658.88;;;21.60;100.00
27294;BME280;14785;52.556;13.430;2023-03-19T13:38:10;100654.19;;;22.15;100.00
27294;BME280;14785;52.556;13.430;2023-03-19T13:43:20;100657.22;;;22.07;100.00
27294;BME280;14785;52.556;13.430;2023-03-19T13:45:50;100651.38;;;22.21;100.00
27294;BME280;14785;52.556;13.430;2023-03-19T13:56:08;100657.53;;;21.51;100.00
27294;BME280;14785;52.556;13.430;2023-03-19T14:01:44;100643.53;;;22.02;100.00
27294;BME280;14785;52.556;13.430;2023-03-19T14:04:31;100641.63;;;21.07;100.00
27294;BME280;14785;52.556;13.430;2023-03-19T14:09:45;100641.47;;;21.56;100.00
27294;BME280;14785;52.556;13.430;2023-03-19T14:12:43;100627.19;;;22.08;100.00
27294;BME280;14785;52.556;13.430;2023-03-19T14:17:52;100632.41;;;22.21;100.00
27294;BME280;14785;52.556;13.430;2023-03-19T14:25:22;100621.03;;;21.06;100.00